Shanghai Pudong International Airport
ZSPD : now visible

Airfield :











YOU CAN JOIN US ON...

 
LOGIN :

Register | Disclaimer

   EN    FR    IT 

 









Legend :    VFR   Marginal VFR   IFR   Intensive IFR   Very Intensive IFR
Visi :
Ceiling :
>= 8 km
>= 3000ft
5 to 8 km
1000 to 3000 ft
1500m to 5 km
500 to 1000 ft
800 to 1500m
200 to 500 ft
< 800m
< 200 ft
Symbols :   Thunderstorms  Fog  Heavy snow  Heavy precipitations  Wind > 20 kt







- Airport Elevation : 13 ft
- IATA code : PVG


ZSPD - Shanghai Pudong International

CURRENT METAR :
  • 211900Z 34011MPS 4000 -SHRA BR BKN007 20/20 Q1005 NOSIG

EXPIRED METARs :
  • 211830Z 34011MPS 6000 -SHRA BKN008 21/20 Q1006 BECMG TL2020 BKN011 OVC040
  • 211800Z 34010MPS 6000 -SHRA BKN008 20/20 Q1006 NOSIG
  • 211730Z 33010MPS 6000 -SHRA BKN008 20/20 Q1006 NOSIG
  • 211700Z 34012G17MPS 6000 R35R/P2000N R34L/P2000N R35L/0550U R34R/P2000N -SHRA BKN010 20/20 Q1007 BECMG TL1730 BKN008 OVC040
  • 211630Z 34013MPS 6000 R35R/P2000N R34L/P2000N R35L/1100U R34R/P2000N -SHRA BKN013 20/20 Q1007 NOSIG

TAF TAF ZSPD
Valid from the 21 at 18:00 until the 22 at 18:00 UTC


211518Z 2118/2218 35013G19MPS 6000 BKN011 OVC040 TX24/2206Z TN19/2121Z
BECMG 2202/2204 34008G13MPS
No reported NOTAMs for that airfield.



MET'MAP, your aeronautical weather chart ! - Copyright ORBIFLY December 2007 - Disclaimer

ORBIFLY MET'MAP TEAM :

Programming & Development : Alexandra Zaïnal
Concept & Development : Baudouin d'Aumeries
Co-Development & Prog : Marc-Olivier Méhu
Technical & hardware support : Manuel Goepfert

Contact : metmap@orbifly.com




SOURCES & CREDITS :

   NOAA       Earth
Advisory